sensor_id;sensor_type;location;lat;lon;timestamp;P1;durP1;ratioP1;P2;durP2;ratioP2
21626;SDS011;10975;47.872;12.972;2024-03-22T00:00:17;20.45;;;17.67;;
21626;SDS011;10975;47.872;12.972;2024-03-22T00:02:43;20.45;;;18.35;;
21626;SDS011;10975;47.872;12.972;2024-03-22T00:05:09;21.75;;;18.88;;
21626;SDS011;10975;47.872;12.972;2024-03-22T00:07:38;19.13;;;17.15;;
21626;SDS011;10975;47.872;12.972;2024-03-22T00:10:05;19.33;;;17.33;;
21626;SDS011;10975;47.872;12.972;2024-03-22T00:12:32;17.50;;;15.70;;
21626;SDS011;10975;47.872;12.972;2024-03-22T00:14:58;17.88;;;16.10;;
21626;SDS011;10975;47.872;12.972;2024-03-22T00:17:25;21.70;;;17.60;;
21626;SDS011;10975;47.872;12.972;2024-03-22T00:19:52;25.30;;;19.52;;
21626;SDS011;10975;47.872;12.972;2024-03-22T00:22:19;20.00;;;16.33;;
21626;SDS011;10975;47.872;12.972;2024-03-22T00:24:45;20.58;;;17.98;;
21626;SDS011;10975;47.872;12.972;2024-03-22T00:27:11;29.48;;;19.75;;
21626;SDS011;10975;47.872;12.972;2024-03-22T00:29:38;18.75;;;16.38;;
21626;SDS011;10975;47.872;12.972;2024-03-22T00:32:04;22.55;;;17.85;;
21626;SDS011;10975;47.872;12.972;2024-03-22T00:34:32;16.38;;;14.73;;
21626;SDS011;10975;47.872;12.972;2024-03-22T00:36:59;20.70;;;16.50;;
21626;SDS011;10975;47.872;12.972;2024-03-22T00:39:25;17.27;;;15.50;;
21626;SDS011;10975;47.872;12.972;2024-03-22T00:41:51;15.63;;;14.13;;
21626;SDS011;10975;47.872;12.972;2024-03-22T00:44:17;21.10;;;12.40;;
21626;SDS011;10975;47.872;12.972;2024-03-22T00:46:43;91.75;;;15.93;;
21626;SDS011;10975;47.872;12.972;2024-03-22T00:49:09;468.95;;;32.70;;
21626;SDS011;10975;47.872;12.972;2024-03-22T00:51:35;234.93;;;19.67;;
21626;SDS011;10975;47.872;12.972;2024-03-22T00:54:00;157.88;;;20.20;;
21626;SDS011;10975;47.872;12.972;2024-03-22T00:56:26;24.88;;;16.25;;
21626;SDS011;10975;47.872;12.972;2024-03-22T00:58:52;36.95;;;15.93;;
21626;SDS011;10975;47.872;12.972;2024-03-22T01:01:21;17.42;;;14.98;;
21626;SDS011;10975;47.872;12.972;2024-03-22T01:03:47;16.80;;;14.20;;
21626;SDS011;10975;47.872;12.972;2024-03-22T01:06:13;37.33;;;13.02;;
21626;SDS011;10975;47.872;12.972;2024-03-22T01:08:39;16.48;;;12.43;;
21626;SDS011;10975;47.872;12.972;2024-03-22T01:11:06;13.02;;;11.25;;
21626;SDS011;10975;47.872;12.972;2024-03-22T01:13:35;13.80;;;12.45;;
21626;SDS011;10975;47.872;12.972;2024-03-22T01:16:01;11.82;;;10.63;;
21626;SDS011;10975;47.872;12.972;2024-03-22T01:18:27;11.75;;;10.55;;
21626;SDS011;10975;47.872;12.972;2024-03-22T01:20:55;13.27;;;12.02;;
21626;SDS011;10975;47.872;12.972;2024-03-22T01:23:22;13.23;;;11.80;;
21626;SDS011;10975;47.872;12.972;2024-03-22T01:25:48;106.88;;;13.38;;
21626;SDS011;10975;47.872;12.972;2024-03-22T01:28:14;9.95;;;9.10;;
21626;SDS011;10975;47.872;12.972;2024-03-22T01:30:48;11.55;;;9.13;;
21626;SDS011;10975;47.872;12.972;2024-03-22T01:33:14;153.20;;;10.52;;
21626;SDS011;10975;47.872;12.972;2024-03-22T01:35:41;168.48;;;11.10;;
21626;SDS011;10975;47.872;12.972;2024-03-22T01:38:07;157.18;;;10.73;;
21626;SDS011;10975;47.872;12.972;2024-03-22T01:40:33;128.27;;;10.05;;
21626;SDS011;10975;47.872;12.972;2024-03-22T01:42:59;66.88;;;9.75;;
21626;SDS011;10975;47.872;12.972;2024-03-22T01:45:25;14.50;;;9.35;;
21626;SDS011;10975;47.872;12.972;2024-03-22T01:47:52;9.43;;;8.52;;
21626;SDS011;10975;47.872;12.972;2024-03-22T01:50:22;13.18;;;8.15;;
21626;SDS011;10975;47.872;12.972;2024-03-22T01:52:49;10.15;;;6.72;;
21626;SDS011;10975;47.872;12.972;2024-03-22T01:55:16;12.77;;;8.13;;
21626;SDS011;10975;47.872;12.972;2024-03-22T01:57:42;26.38;;;8.88;;
21626;SDS011;10975;47.872;12.972;2024-03-22T02:00:08;16.77;;;8.52;;
21626;SDS011;10975;47.872;12.972;2024-03-22T02:06:22;123.82;;;10.75;;
21626;SDS011;10975;47.872;12.972;2024-03-22T02:08:48;91.57;;;8.98;;
21626;SDS011;10975;47.872;12.972;2024-03-22T02:11:14;84.28;;;8.90;;
21626;SDS011;10975;47.872;12.972;2024-03-22T02:13:39;61.80;;;9.10;;
21626;SDS011;10975;47.872;12.972;2024-03-22T02:16:05;27.48;;;7.50;;
21626;SDS011;10975;47.872;12.972;2024-03-22T02:18:31;31.35;;;5.22;;
21626;SDS011;10975;47.872;12.972;2024-03-22T02:20:57;6.85;;;6.03;;
21626;SDS011;10975;47.872;12.972;2024-03-22T02:23:31;6.68;;;6.18;;
21626;SDS011;10975;47.872;12.972;2024-03-22T02:25:59;8.23;;;7.55;;
21626;SDS011;10975;47.872;12.972;2024-03-22T02:28:25;8.07;;;7.47;;
21626;SDS011;10975;47.872;12.972;2024-03-22T02:30:51;9.50;;;8.60;;
21626;SDS011;10975;47.872;12.972;2024-03-22T02:33:17;9.55;;;8.75;;
21626;SDS011;10975;47.872;12.972;2024-03-22T02:35:43;36.20;;;6.30;;
21626;SDS011;10975;47.872;12.972;2024-03-22T02:38:11;72.03;;;8.65;;
21626;SDS011;10975;47.872;12.972;2024-03-22T02:40:37;137.38;;;9.52;;
21626;SDS011;10975;47.872;12.972;2024-03-22T02:43:03;10.02;;;6.78;;
21626;SDS011;10975;47.872;12.972;2024-03-22T02:45:29;8.55;;;7.75;;
21626;SDS011;10975;47.872;12.972;2024-03-22T02:47:56;8.95;;;7.35;;
21626;SDS011;10975;47.872;12.972;2024-03-22T02:50:22;9.05;;;8.25;;
21626;SDS011;10975;47.872;12.972;2024-03-22T02:52:48;7.43;;;6.85;;
21626;SDS011;10975;47.872;12.972;2024-03-22T02:55:14;24.65;;;5.95;;
21626;SDS011;10975;47.872;12.972;2024-03-22T02:57:40;5.38;;;4.97;;
21626;SDS011;10975;47.872;12.972;2024-03-22T03:00:06;7.45;;;6.85;;
21626;SDS011;10975;47.872;12.972;2024-03-22T03:02:32;105.88;;;7.60;;
21626;SDS011;10975;47.872;12.972;2024-03-22T03:04:58;11.07;;;6.32;;
21626;SDS011;10975;47.872;12.972;2024-03-22T03:07:25;7.60;;;6.93;;
21626;SDS011;10975;47.872;12.972;2024-03-22T03:09:51;32.38;;;8.90;;
21626;SDS011;10975;47.872;12.972;2024-03-22T03:12:17;108.10;;;9.07;;
21626;SDS011;10975;47.872;12.972;2024-03-22T03:14:43;48.72;;;7.13;;
21626;SDS011;10975;47.872;12.972;2024-03-22T03:17:08;30.45;;;7.63;;
21626;SDS011;10975;47.872;12.972;2024-03-22T03:19:34;9.20;;;8.40;;
21626;SDS011;10975;47.872;12.972;2024-03-22T03:22:01;87.78;;;8.77;;
21626;SDS011;10975;47.872;12.972;2024-03-22T03:24:27;81.82;;;10.80;;
21626;SDS011;10975;47.872;12.972;2024-03-22T03:26:52;109.88;;;13.77;;
21626;SDS011;10975;47.872;12.972;2024-03-22T03:29:19;7.93;;;7.22;;
21626;SDS011;10975;47.872;12.972;2024-03-22T03:31:45;57.50;;;10.30;;
21626;SDS011;10975;47.872;12.972;2024-03-22T03:34:10;106.03;;;8.43;;
21626;SDS011;10975;47.872;12.972;2024-03-22T03:36:36;10.05;;;7.28;;
21626;SDS011;10975;47.872;12.972;2024-03-22T03:39:02;43.90;;;12.60;;
21626;SDS011;10975;47.872;12.972;2024-03-22T03:41:29;15.15;;;13.05;;
21626;SDS011;10975;47.872;12.972;2024-03-22T03:43:55;68.22;;;11.90;;
21626;SDS011;10975;47.872;12.972;2024-03-22T03:46:20;9.50;;;8.52;;
21626;SDS011;10975;47.872;12.972;2024-03-22T03:48:46;17.05;;;8.65;;
21626;SDS011;10975;47.872;12.972;2024-03-22T03:51:12;8.95;;;8.15;;
21626;SDS011;10975;47.872;12.972;2024-03-22T03:53:38;9.50;;;8.63;;
21626;SDS011;10975;47.872;12.972;2024-03-22T03:56:04;172.07;;;11.65;;
21626;SDS011;10975;47.872;12.972;2024-03-22T03:58:29;19.65;;;7.38;;
21626;SDS011;10975;47.872;12.972;2024-03-22T04:00:55;8.32;;;7.53;;
21626;SDS011;10975;47.872;12.972;2024-03-22T04:03:21;6.90;;;6.30;;
21626;SDS011;10975;47.872;12.972;2024-03-22T04:05:55;8.30;;;7.50;;
21626;SDS011;10975;47.872;12.972;2024-03-22T04:08:25;7.90;;;7.20;;
21626;SDS011;10975;47.872;12.972;2024-03-22T04:10:52;8.25;;;7.55;;
21626;SDS011;10975;47.872;12.972;2024-03-22T04:13:25;96.53;;;9.18;;
21626;SDS011;10975;47.872;12.972;2024-03-22T04:15:52;131.63;;;10.32;;
21626;SDS011;10975;47.872;12.972;2024-03-22T04:18:18;80.93;;;9.63;;
21626;SDS011;10975;47.872;12.972;2024-03-22T04:20:57;52.63;;;7.65;;
21626;SDS011;10975;47.872;12.972;2024-03-22T04:23:24;58.95;;;7.85;;
21626;SDS011;10975;47.872;12.972;2024-03-22T04:25:54;60.70;;;9.30;;
21626;SDS011;10975;47.872;12.972;2024-03-22T04:28:21;35.00;;;8.25;;
21626;SDS011;10975;47.872;12.972;2024-03-22T04:31:00;29.08;;;8.70;;
21626;SDS011;10975;47.872;12.972;2024-03-22T04:33:27;15.82;;;9.57;;
21626;SDS011;10975;47.872;12.972;2024-03-22T04:35:54;10.18;;;8.50;;
21626;SDS011;10975;47.872;12.972;2024-03-22T04:38:21;17.15;;;11.07;;
21626;SDS011;10975;47.872;12.972;2024-03-22T04:40:48;9.05;;;8.00;;
21626;SDS011;10975;47.872;12.972;2024-03-22T04:43:14;10.38;;;9.30;;
21626;SDS011;10975;47.872;12.972;2024-03-22T04:45:44;11.55;;;10.13;;
21626;SDS011;10975;47.872;12.972;2024-03-22T04:48:16;7.50;;;6.72;;
21626;SDS011;10975;47.872;12.972;2024-03-22T04:50:43;36.42;;;8.07;;
21626;SDS011;10975;47.872;12.972;2024-03-22T04:53:09;53.92;;;7.13;;
21626;SDS011;10975;47.872;12.972;2024-03-22T04:55:35;74.72;;;7.93;;
21626;SDS011;10975;47.872;12.972;2024-03-22T04:58:01;97.50;;;8.43;;
21626;SDS011;10975;47.872;12.972;2024-03-22T05:00:27;85.18;;;9.65;;
21626;SDS011;10975;47.872;12.972;2024-03-22T05:02:53;24.10;;;10.25;;
21626;SDS011;10975;47.872;12.972;2024-03-22T05:05:20;37.58;;;10.50;;
21626;SDS011;10975;47.872;12.972;2024-03-22T05:07:46;13.05;;;8.15;;
21626;SDS011;10975;47.872;12.972;2024-03-22T05:10:12;8.80;;;8.00;;
21626;SDS011;10975;47.872;12.972;2024-03-22T05:12:38;10.00;;;9.05;;
21626;SDS011;10975;47.872;12.972;2024-03-22T05:15:05;12.35;;;10.40;;
21626;SDS011;10975;47.872;12.972;2024-03-22T05:17:31;35.85;;;6.78;;
21626;SDS011;10975;47.872;12.972;2024-03-22T05:19:58;123.28;;;8.45;;
21626;SDS011;10975;47.872;12.972;2024-03-22T05:22:24;52.83;;;10.30;;
21626;SDS011;10975;47.872;12.972;2024-03-22T05:24:50;94.65;;;9.25;;
21626;SDS011;10975;47.872;12.972;2024-03-22T05:27:17;49.50;;;9.43;;
21626;SDS011;10975;47.872;12.972;2024-03-22T05:29:43;81.07;;;11.43;;
21626;SDS011;10975;47.872;12.972;2024-03-22T05:32:09;8.07;;;7.30;;
21626;SDS011;10975;47.872;12.972;2024-03-22T05:34:34;52.67;;;8.20;;
21626;SDS011;10975;47.872;12.972;2024-03-22T05:37:03;9.02;;;6.32;;
21626;SDS011;10975;47.872;12.972;2024-03-22T05:39:29;9.30;;;6.78;;
21626;SDS011;10975;47.872;12.972;2024-03-22T05:41:55;12.13;;;10.00;;
21626;SDS011;10975;47.872;12.972;2024-03-22T05:44:23;11.00;;;9.63;;
21626;SDS011;10975;47.872;12.972;2024-03-22T05:46:49;11.00;;;9.80;;
21626;SDS011;10975;47.872;12.972;2024-03-22T05:49:15;16.08;;;13.38;;
21626;SDS011;10975;47.872;12.972;2024-03-22T05:51:41;19.08;;;14.35;;
21626;SDS011;10975;47.872;12.972;2024-03-22T05:54:08;21.70;;;14.98;;
21626;SDS011;10975;47.872;12.972;2024-03-22T05:56:34;20.23;;;14.20;;
21626;SDS011;10975;47.872;12.972;2024-03-22T05:59:00;20.10;;;15.60;;
21626;SDS011;10975;47.872;12.972;2024-03-22T06:01:25;17.70;;;13.95;;
21626;SDS011;10975;47.872;12.972;2024-03-22T06:03:52;19.15;;;14.80;;
21626;SDS011;10975;47.872;12.972;2024-03-22T06:06:18;19.88;;;15.40;;
21626;SDS011;10975;47.872;12.972;2024-03-22T06:08:44;19.80;;;14.90;;
21626;SDS011;10975;47.872;12.972;2024-03-22T06:11:10;18.77;;;14.43;;
21626;SDS011;10975;47.872;12.972;2024-03-22T06:13:36;20.98;;;14.77;;
21626;SDS011;10975;47.872;12.972;2024-03-22T06:16:03;17.42;;;14.63;;
21626;SDS011;10975;47.872;12.972;2024-03-22T06:18:29;16.83;;;13.23;;
21626;SDS011;10975;47.872;12.972;2024-03-22T06:20:55;18.65;;;14.50;;
21626;SDS011;10975;47.872;12.972;2024-03-22T06:23:21;18.52;;;14.48;;
21626;SDS011;10975;47.872;12.972;2024-03-22T06:25:51;18.58;;;14.27;;
21626;SDS011;10975;47.872;12.972;2024-03-22T06:28:17;17.40;;;14.07;;
21626;SDS011;10975;47.872;12.972;2024-03-22T06:30:43;15.63;;;13.57;;
21626;SDS011;10975;47.872;12.972;2024-03-22T06:33:09;15.70;;;13.43;;
21626;SDS011;10975;47.872;12.972;2024-03-22T06:35:35;17.52;;;13.55;;
21626;SDS011;10975;47.872;12.972;2024-03-22T06:38:01;18.38;;;13.77;;
21626;SDS011;10975;47.872;12.972;2024-03-22T06:40:28;16.75;;;14.63;;
21626;SDS011;10975;47.872;12.972;2024-03-22T06:42:54;15.77;;;13.30;;
21626;SDS011;10975;47.872;12.972;2024-03-22T06:45:20;16.90;;;13.40;;
21626;SDS011;10975;47.872;12.972;2024-03-22T06:47:46;18.27;;;14.82;;
21626;SDS011;10975;47.872;12.972;2024-03-22T06:50:13;15.95;;;14.00;;
21626;SDS011;10975;47.872;12.972;2024-03-22T06:52:38;14.90;;;13.02;;
21626;SDS011;10975;47.872;12.972;2024-03-22T06:55:04;14.65;;;12.95;;
21626;SDS011;10975;47.872;12.972;2024-03-22T06:57:31;18.50;;;13.15;;
21626;SDS011;10975;47.872;12.972;2024-03-22T06:59:59;14.63;;;13.13;;
21626;SDS011;10975;47.872;12.972;2024-03-22T07:02:25;14.63;;;12.57;;
21626;SDS011;10975;47.872;12.972;2024-03-22T07:04:51;14.02;;;12.45;;
21626;SDS011;10975;47.872;12.972;2024-03-22T07:07:20;13.95;;;12.48;;
21626;SDS011;10975;47.872;12.972;2024-03-22T07:09:45;12.98;;;10.95;;
21626;SDS011;10975;47.872;12.972;2024-03-22T07:12:13;12.38;;;11.23;;
21626;SDS011;10975;47.872;12.972;2024-03-22T07:14:39;12.50;;;11.30;;
21626;SDS011;10975;47.872;12.972;2024-03-22T07:17:05;12.30;;;10.82;;
21626;SDS011;10975;47.872;12.972;2024-03-22T07:19:31;14.02;;;11.68;;
21626;SDS011;10975;47.872;12.972;2024-03-22T07:21:58;13.25;;;11.23;;
21626;SDS011;10975;47.872;12.972;2024-03-22T07:24:24;12.00;;;10.80;;
21626;SDS011;10975;47.872;12.972;2024-03-22T07:26:51;11.43;;;10.32;;
21626;SDS011;10975;47.872;12.972;2024-03-22T07:29:17;12.20;;;10.85;;
21626;SDS011;10975;47.872;12.972;2024-03-22T07:31:43;13.48;;;11.48;;
21626;SDS011;10975;47.872;12.972;2024-03-22T07:34:08;11.48;;;10.40;;
21626;SDS011;10975;47.872;12.972;2024-03-22T07:36:38;11.20;;;10.20;;
21626;SDS011;10975;47.872;12.972;2024-03-22T07:39:04;12.20;;;11.00;;
21626;SDS011;10975;47.872;12.972;2024-03-22T07:41:33;13.35;;;11.88;;
21626;SDS011;10975;47.872;12.972;2024-03-22T07:43:59;13.50;;;11.02;;
21626;SDS011;10975;47.872;12.972;2024-03-22T07:46:25;12.25;;;11.13;;
21626;SDS011;10975;47.872;12.972;2024-03-22T07:48:51;12.50;;;11.20;;
21626;SDS011;10975;47.872;12.972;2024-03-22T07:51:18;12.30;;;11.10;;
21626;SDS011;10975;47.872;12.972;2024-03-22T07:53:44;12.05;;;10.95;;
21626;SDS011;10975;47.872;12.972;2024-03-22T07:56:11;13.07;;;11.65;;
21626;SDS011;10975;47.872;12.972;2024-03-22T07:58:40;12.88;;;11.68;;
21626;SDS011;10975;47.872;12.972;2024-03-22T08:01:06;12.50;;;11.32;;
21626;SDS011;10975;47.872;12.972;2024-03-22T08:03:32;11.82;;;10.73;;
21626;SDS011;10975;47.872;12.972;2024-03-22T08:05:58;12.25;;;11.20;;
21626;SDS011;10975;47.872;12.972;2024-03-22T08:08:24;11.50;;;10.38;;
21626;SDS011;10975;47.872;12.972;2024-03-22T08:10:50;11.65;;;10.63;;
21626;SDS011;10975;47.872;12.972;2024-03-22T08:13:16;17.55;;;12.07;;
21626;SDS011;10975;47.872;12.972;2024-03-22T08:15:42;13.93;;;12.40;;
21626;SDS011;10975;47.872;12.972;2024-03-22T08:18:10;13.48;;;12.18;;
21626;SDS011;10975;47.872;12.972;2024-03-22T08:20:36;13.50;;;12.30;;
21626;SDS011;10975;47.872;12.972;2024-03-22T08:23:04;12.93;;;11.68;;
21626;SDS011;10975;47.872;12.972;2024-03-22T08:25:30;14.43;;;13.02;;
21626;SDS011;10975;47.872;12.972;2024-03-22T08:27:56;13.38;;;12.07;;
21626;SDS011;10975;47.872;12.972;2024-03-22T08:30:23;12.23;;;11.07;;
21626;SDS011;10975;47.872;12.972;2024-03-22T08:32:50;11.63;;;10.43;;
21626;SDS011;10975;47.872;12.972;2024-03-22T08:35:17;11.07;;;10.07;;
21626;SDS011;10975;47.872;12.972;2024-03-22T08:37:43;11.70;;;10.65;;
21626;SDS011;10975;47.872;12.972;2024-03-22T08:40:08;12.60;;;11.40;;
21626;SDS011;10975;47.872;12.972;2024-03-22T08:42:35;11.68;;;10.43;;
21626;SDS011;10975;47.872;12.972;2024-03-22T08:45:01;11.77;;;10.77;;
21626;SDS011;10975;47.872;12.972;2024-03-22T08:47:29;12.05;;;10.82;;
21626;SDS011;10975;47.872;12.972;2024-03-22T08:49:56;9.55;;;8.63;;
21626;SDS011;10975;47.872;12.972;2024-03-22T08:52:23;9.38;;;8.48;;
21626;SDS011;10975;47.872;12.972;2024-03-22T08:54:52;9.27;;;8.38;;
21626;SDS011;10975;47.872;12.972;2024-03-22T08:57:18;8.98;;;8.20;;
21626;SDS011;10975;47.872;12.972;2024-03-22T08:59:45;8.70;;;7.90;;
21626;SDS011;10975;47.872;12.972;2024-03-22T09:02:10;8.13;;;7.43;;
21626;SDS011;10975;47.872;12.972;2024-03-22T09:04:37;8.30;;;7.57;;
21626;SDS011;10975;47.872;12.972;2024-03-22T09:07:03;8.70;;;7.45;;
21626;SDS011;10975;47.872;12.972;2024-03-22T09:09:29;9.13;;;8.30;;
21626;SDS011;10975;47.872;12.972;2024-03-22T09:11:55;9.02;;;8.13;;
21626;SDS011;10975;47.872;12.972;2024-03-22T09:14:21;9.15;;;8.35;;
21626;SDS011;10975;47.872;12.972;2024-03-22T09:16:47;9.07;;;8.27;;
21626;SDS011;10975;47.872;12.972;2024-03-22T09:19:12;8.60;;;7.50;;
21626;SDS011;10975;47.872;12.972;2024-03-22T09:21:38;8.55;;;7.65;;
21626;SDS011;10975;47.872;12.972;2024-03-22T09:24:04;8.20;;;7.32;;
21626;SDS011;10975;47.872;12.972;2024-03-22T09:26:31;7.15;;;6.55;;
21626;SDS011;10975;47.872;12.972;2024-03-22T09:28:58;7.75;;;6.97;;
21626;SDS011;10975;47.872;12.972;2024-03-22T09:31:24;8.63;;;7.93;;
21626;SDS011;10975;47.872;12.972;2024-03-22T09:33:50;10.25;;;9.35;;
21626;SDS011;10975;47.872;12.972;2024-03-22T09:36:16;9.60;;;8.73;;
21626;SDS011;10975;47.872;12.972;2024-03-22T09:38:42;15.15;;;7.78;;
21626;SDS011;10975;47.872;12.972;2024-03-22T09:41:08;8.75;;;7.95;;
21626;SDS011;10975;47.872;12.972;2024-03-22T09:43:33;9.00;;;7.85;;
21626;SDS011;10975;47.872;12.972;2024-03-22T09:46:00;8.85;;;8.07;;
21626;SDS011;10975;47.872;12.972;2024-03-22T09:48:27;8.48;;;7.68;;
21626;SDS011;10975;47.872;12.972;2024-03-22T09:50:54;8.35;;;7.55;;
21626;SDS011;10975;47.872;12.972;2024-03-22T09:53:21;8.60;;;7.80;;
21626;SDS011;10975;47.872;12.972;2024-03-22T09:55:48;8.55;;;7.85;;
21626;SDS011;10975;47.872;12.972;2024-03-22T09:58:15;7.72;;;6.97;;
21626;SDS011;10975;47.872;12.972;2024-03-22T10:00:44;8.75;;;6.85;;
21626;SDS011;10975;47.872;12.972;2024-03-22T10:03:10;8.50;;;7.25;;
21626;SDS011;10975;47.872;12.972;2024-03-22T10:05:36;8.68;;;7.80;;
21626;SDS011;10975;47.872;12.972;2024-03-22T10:08:05;7.45;;;6.70;;
21626;SDS011;10975;47.872;12.972;2024-03-22T10:10:34;6.82;;;6.15;;
21626;SDS011;10975;47.872;12.972;2024-03-22T10:13:01;7.85;;;7.25;;
21626;SDS011;10975;47.872;12.972;2024-03-22T10:15:27;7.13;;;6.53;;
21626;SDS011;10975;47.872;12.972;2024-03-22T10:17:54;7.38;;;6.35;;
21626;SDS011;10975;47.872;12.972;2024-03-22T10:20:22;8.48;;;6.45;;
21626;SDS011;10975;47.872;12.972;2024-03-22T10:22:48;7.82;;;6.03;;
21626;SDS011;10975;47.872;12.972;2024-03-22T10:25:20;6.40;;;5.90;;
21626;SDS011;10975;47.872;12.972;2024-03-22T10:27:48;6.63;;;6.00;;
21626;SDS011;10975;47.872;12.972;2024-03-22T10:30:15;6.60;;;6.00;;
21626;SDS011;10975;47.872;12.972;2024-03-22T10:32:42;6.57;;;5.97;;
21626;SDS011;10975;47.872;12.972;2024-03-22T10:35:08;7.35;;;5.72;;
21626;SDS011;10975;47.872;12.972;2024-03-22T10:37:39;6.03;;;5.28;;
21626;SDS011;10975;47.872;12.972;2024-03-22T10:40:06;5.47;;;5.00;;
21626;SDS011;10975;47.872;12.972;2024-03-22T10:42:35;5.80;;;5.25;;
21626;SDS011;10975;47.872;12.972;2024-03-22T10:45:02;5.57;;;5.07;;
21626;SDS011;10975;47.872;12.972;2024-03-22T10:47:30;6.57;;;5.20;;
21626;SDS011;10975;47.872;12.972;2024-03-22T10:55:25;5.00;;;4.60;;
21626;SDS011;10975;47.872;12.972;2024-03-22T10:57:59;4.57;;;4.18;;
21626;SDS011;10975;47.872;12.972;2024-03-22T11:00:33;4.97;;;4.57;;
21626;SDS011;10975;47.872;12.972;2024-03-22T11:03:03;4.95;;;4.40;;
21626;SDS011;10975;47.872;12.972;2024-03-22T11:05:30;6.38;;;4.70;;
21626;SDS011;10975;47.872;12.972;2024-03-22T11:08:22;6.32;;;5.00;;
21626;SDS011;10975;47.872;12.972;2024-03-22T11:10:51;5.57;;;4.95;;
21626;SDS011;10975;47.872;12.972;2024-03-22T11:13:17;5.45;;;4.57;;
21626;SDS011;10975;47.872;12.972;2024-03-22T11:15:43;4.70;;;4.40;;
21626;SDS011;10975;47.872;12.972;2024-03-22T11:18:09;4.80;;;4.40;;
21626;SDS011;10975;47.872;12.972;2024-03-22T11:20:38;5.07;;;4.60;;
21626;SDS011;10975;47.872;12.972;2024-03-22T11:23:04;5.10;;;4.63;;
21626;SDS011;10975;47.872;12.972;2024-03-22T11:25:31;5.00;;;4.60;;
21626;SDS011;10975;47.872;12.972;2024-03-22T11:27:58;2.83;;;2.42;;
21626;SDS011;10975;47.872;12.972;2024-03-22T11:30:28;1.95;;;1.75;;
21626;SDS011;10975;47.872;12.972;2024-03-22T11:33:00;2.35;;;2.15;;
21626;SDS011;10975;47.872;12.972;2024-03-22T11:35:27;2.33;;;2.13;;
21626;SDS011;10975;47.872;12.972;2024-03-22T11:37:53;2.22;;;2.03;;
21626;SDS011;10975;47.872;12.972;2024-03-22T11:40:19;4.30;;;2.00;;
21626;SDS011;10975;47.872;12.972;2024-03-22T11:42:46;2.50;;;2.30;;
21626;SDS011;10975;47.872;12.972;2024-03-22T11:45:16;2.20;;;1.95;;
21626;SDS011;10975;47.872;12.972;2024-03-22T11:47:44;3.22;;;1.92;;
21626;SDS011;10975;47.872;12.972;2024-03-22T11:50:11;2.20;;;2.00;;
21626;SDS011;10975;47.872;12.972;2024-03-22T11:52:41;2.45;;;2.20;;
21626;SDS011;10975;47.872;12.972;2024-03-22T11:55:07;2.83;;;2.35;;
21626;SDS011;10975;47.872;12.972;2024-03-22T11:57:33;2.75;;;2.20;;
21626;SDS011;10975;47.872;12.972;2024-03-22T11:59:59;3.75;;;2.33;;
21626;SDS011;10975;47.872;12.972;2024-03-22T12:02:26;2.95;;;2.65;;
21626;SDS011;10975;47.872;12.972;2024-03-22T12:04:53;4.32;;;2.00;;
21626;SDS011;10975;47.872;12.972;2024-03-22T12:07:19;2.00;;;1.70;;
21626;SDS011;10975;47.872;12.972;2024-03-22T12:09:45;1.90;;;1.80;;
21626;SDS011;10975;47.872;12.972;2024-03-22T12:12:11;2.92;;;2.00;;
21626;SDS011;10975;47.872;12.972;2024-03-22T12:14:38;3.05;;;2.10;;
21626;SDS011;10975;47.872;12.972;2024-03-22T12:17:05;2.70;;;2.08;;
21626;SDS011;10975;47.872;12.972;2024-03-22T12:19:31;2.10;;;1.90;;
21626;SDS011;10975;47.872;12.972;2024-03-22T12:21:58;2.20;;;1.77;;
21626;SDS011;10975;47.872;12.972;2024-03-22T12:24:24;2.10;;;1.90;;
21626;SDS011;10975;47.872;12.972;2024-03-22T12:26:50;2.45;;;1.67;;
21626;SDS011;10975;47.872;12.972;2024-03-22T12:29:17;4.03;;;2.40;;
21626;SDS011;10975;47.872;12.972;2024-03-22T12:31:43;2.78;;;2.40;;
21626;SDS011;10975;47.872;12.972;2024-03-22T12:34:09;2.50;;;2.30;;
21626;SDS011;10975;47.872;12.972;2024-03-22T12:36:35;2.85;;;2.20;;
21626;SDS011;10975;47.872;12.972;2024-03-22T12:39:01;2.47;;;2.28;;
21626;SDS011;10975;47.872;12.972;2024-03-22T12:41:28;3.97;;;2.22;;
21626;SDS011;10975;47.872;12.972;2024-03-22T12:43:55;3.22;;;2.08;;
21626;SDS011;10975;47.872;12.972;2024-03-22T12:46:21;2.35;;;2.15;;
21626;SDS011;10975;47.872;12.972;2024-03-22T12:48:47;2.35;;;2.13;;
21626;SDS011;10975;47.872;12.972;2024-03-22T12:51:13;3.28;;;2.13;;
21626;SDS011;10975;47.872;12.972;2024-03-22T12:53:39;2.55;;;2.08;;
21626;SDS011;10975;47.872;12.972;2024-03-22T12:56:06;2.72;;;2.10;;
21626;SDS011;10975;47.872;12.972;2024-03-22T12:58:31;2.65;;;2.00;;
21626;SDS011;10975;47.872;12.972;2024-03-22T13:00:57;3.95;;;2.38;;
21626;SDS011;10975;47.872;12.972;2024-03-22T13:03:26;3.05;;;2.25;;
21626;SDS011;10975;47.872;12.972;2024-03-22T13:05:52;2.60;;;1.90;;
21626;SDS011;10975;47.872;12.972;2024-03-22T13:08:18;2.22;;;2.03;;
21626;SDS011;10975;47.872;12.972;2024-03-22T13:10:45;2.85;;;2.53;;
21626;SDS011;10975;47.872;12.972;2024-03-22T13:13:12;4.15;;;2.70;;
21626;SDS011;10975;47.872;12.972;2024-03-22T13:15:40;2.67;;;2.45;;
21626;SDS011;10975;47.872;12.972;2024-03-22T13:18:07;3.33;;;2.40;;
21626;SDS011;10975;47.872;12.972;2024-03-22T13:20:37;2.47;;;2.22;;
21626;SDS011;10975;47.872;12.972;2024-03-22T13:23:03;2.97;;;2.22;;
21626;SDS011;10975;47.872;12.972;2024-03-22T13:25:29;3.00;;;2.80;;
21626;SDS011;10975;47.872;12.972;2024-03-22T13:27:55;3.38;;;2.60;;
21626;SDS011;10975;47.872;12.972;2024-03-22T13:30:20;3.10;;;2.47;;
21626;SDS011;10975;47.872;12.972;2024-03-22T13:32:46;2.42;;;2.15;;
21626;SDS011;10975;47.872;12.972;2024-03-22T13:35:12;3.80;;;2.30;;
21626;SDS011;10975;47.872;12.972;2024-03-22T13:37:40;2.38;;;2.17;;
21626;SDS011;10975;47.872;12.972;2024-03-22T13:40:06;2.60;;;2.10;;
21626;SDS011;10975;47.872;12.972;2024-03-22T13:42:33;2.60;;;2.25;;
21626;SDS011;10975;47.872;12.972;2024-03-22T13:44:59;4.03;;;2.08;;
21626;SDS011;10975;47.872;12.972;2024-03-22T13:47:26;3.08;;;1.90;;
21626;SDS011;10975;47.872;12.972;2024-03-22T13:49:55;2.38;;;2.17;;
21626;SDS011;10975;47.872;12.972;2024-03-22T13:52:21;4.55;;;2.10;;
21626;SDS011;10975;47.872;12.972;2024-03-22T13:54:47;2.33;;;2.13;;
21626;SDS011;10975;47.872;12.972;2024-03-22T13:57:13;3.30;;;2.00;;
21626;SDS011;10975;47.872;12.972;2024-03-22T13:59:39;3.45;;;2.15;;
21626;SDS011;10975;47.872;12.972;2024-03-22T14:02:08;2.22;;;1.90;;
21626;SDS011;10975;47.872;12.972;2024-03-22T14:04:36;2.60;;;2.40;;
21626;SDS011;10975;47.872;12.972;2024-03-22T14:07:02;3.13;;;2.28;;
21626;SDS011;10975;47.872;12.972;2024-03-22T14:09:30;2.80;;;2.50;;
21626;SDS011;10975;47.872;12.972;2024-03-22T14:12:00;2.95;;;2.28;;
21626;SDS011;10975;47.872;12.972;2024-03-22T14:14:26;2.60;;;2.03;;
21626;SDS011;10975;47.872;12.972;2024-03-22T14:16:52;2.30;;;2.10;;
21626;SDS011;10975;47.872;12.972;2024-03-22T14:19:18;3.47;;;2.80;;
21626;SDS011;10975;47.872;12.972;2024-03-22T14:21:45;2.42;;;2.15;;
21626;SDS011;10975;47.872;12.972;2024-03-22T14:24:14;4.07;;;2.00;;
21626;SDS011;10975;47.872;12.972;2024-03-22T14:26:41;3.08;;;2.25;;